createdAt,value
2018-12-27T00:00:36.645Z,3.10
2018-12-27T00:03:11.531Z,3.11
2018-12-27T00:05:46.693Z,3.12
2018-12-27T00:08:20.597Z,3.12
2018-12-27T00:10:53.901Z,3.12
2018-12-27T00:13:27.204Z,3.12
2018-12-27T00:16:01.788Z,3.10
2018-12-27T00:18:34.832Z,3.06
2018-12-27T00:21:08.132Z,3.04
2018-12-27T00:23:41.680Z,3.02
2018-12-27T00:26:15.276Z,2.98
2018-12-27T00:28:50.537Z,2.94
2018-12-27T00:31:25.473Z,2.91
2018-12-27T00:33:59.412Z,2.90
2018-12-27T00:36:33.349Z,2.85
2018-12-27T00:39:08.805Z,2.77
2018-12-27T00:41:41.668Z,2.74
2018-12-27T00:44:14.701Z,2.73
2018-12-27T00:46:48.003Z,2.68
2018-12-27T00:49:23.968Z,2.65
2018-12-27T00:51:57.375Z,2.63
2018-12-27T00:54:30.754Z,2.61
2018-12-27T00:57:06.961Z,2.64
2018-12-27T00:59:39.997Z,2.63
2018-12-27T01:02:13.375Z,2.59
2018-12-27T01:04:46.328Z,2.61
2018-12-27T01:07:19.787Z,2.54
2018-12-27T01:09:53.136Z,2.51
2018-12-27T01:12:26.793Z,2.56
2018-12-27T01:15:02.807Z,2.68
2018-12-27T01:17:37.496Z,2.73
2018-12-27T01:20:10.924Z,2.76
2018-12-27T01:22:43.826Z,2.86
2018-12-27T01:25:17.187Z,2.90
2018-12-27T01:27:50.118Z,2.94
2018-12-27T01:30:23.024Z,2.94
2018-12-27T01:32:58.239Z,2.95
2018-12-27T01:35:31.161Z,2.94
2018-12-27T01:38:08.499Z,2.91
2018-12-27T01:40:42.682Z,2.91
2018-12-27T01:43:16.881Z,2.92
2018-12-27T01:45:50.735Z,2.95
2018-12-27T01:48:24.144Z,2.95
2018-12-27T01:50:57.060Z,2.99
2018-12-27T01:53:30.460Z,3.01
2018-12-27T01:56:04.234Z,3.03
2018-12-27T01:58:37.688Z,3.09
2018-12-27T02:01:13.573Z,3.08
2018-12-27T02:03:48.148Z,3.09
2018-12-27T02:06:21.011Z,3.10
2018-12-27T02:08:55.074Z,3.13
2018-12-27T02:11:31.184Z,3.16
2018-12-27T02:14:04.601Z,3.15
2018-12-27T02:16:38.474Z,3.13
2018-12-27T02:22:30.901Z,3.02
2018-12-27T02:25:03.807Z,2.93
2018-12-27T02:27:38.964Z,2.88
2018-12-27T02:30:13.407Z,2.79
2018-12-27T02:32:46.361Z,2.72
2018-12-27T02:35:20.751Z,2.63
2018-12-27T02:37:53.637Z,2.61
2018-12-27T02:40:28.354Z,2.59
2018-12-27T02:43:02.086Z,2.54
2018-12-27T02:45:34.940Z,2.53
2018-12-27T02:48:08.057Z,2.54
2018-12-27T02:50:42.880Z,2.54
2018-12-27T02:53:16.639Z,2.55
2018-12-27T02:55:50.305Z,2.57
2018-12-27T02:58:23.609Z,2.58
2018-12-27T03:00:56.602Z,2.65
2018-12-27T03:03:29.591Z,2.70
2018-12-27T03:06:02.976Z,2.73
2018-12-27T03:08:36.172Z,2.78
2018-12-27T03:11:09.707Z,2.81
2018-12-27T03:13:46.523Z,2.84
2018-12-27T03:16:22.801Z,2.84
2018-12-27T03:18:56.529Z,2.79
2018-12-27T03:21:29.887Z,2.76
2018-12-27T03:24:02.656Z,2.73
2018-12-27T03:26:35.831Z,2.65
2018-12-27T03:29:09.605Z,2.55
2018-12-27T03:31:42.785Z,2.46
2018-12-27T03:34:18.082Z,2.40
2018-12-27T03:36:52.494Z,2.37
2018-12-27T03:39:25.347Z,2.28
2018-12-27T03:41:59.098Z,2.23
2018-12-27T03:44:33.571Z,2.18
2018-12-27T03:47:06.481Z,2.09
2018-12-27T03:49:39.648Z,2.00
2018-12-27T03:52:13.081Z,1.87
2018-12-27T03:54:46.976Z,1.73
2018-12-27T03:57:19.871Z,1.60
2018-12-27T03:59:53.329Z,1.48
2018-12-27T04:02:26.236Z,1.36
2018-12-27T04:04:59.198Z,1.31
2018-12-27T04:07:33.685Z,1.28
2018-12-27T04:10:07.355Z,1.14
2018-12-27T04:12:40.257Z,0.99
2018-12-27T04:15:15.981Z,0.91
2018-12-27T04:17:50.288Z,0.85
2018-12-27T04:20:23.179Z,0.82
2018-12-27T04:22:56.519Z,0.83
2018-12-27T04:25:29.962Z,0.78
2018-12-27T04:28:03.845Z,0.70
2018-12-27T04:30:38.432Z,0.56
2018-12-27T04:33:17.504Z,0.45
2018-12-27T04:35:53.420Z,0.41
2018-12-27T04:38:26.439Z,0.41
2018-12-27T04:40:59.307Z,0.42
2018-12-27T04:43:33.483Z,0.33
2018-12-27T04:46:07.185Z,0.27
2018-12-27T04:48:40.132Z,0.13
2018-12-27T04:51:13.577Z,0.06
2018-12-27T04:53:46.480Z,0.05
2018-12-27T04:56:19.336Z,0.03
2018-12-27T04:58:52.700Z,-0.13
2018-12-27T05:01:26.010Z,-0.25
2018-12-27T05:03:59.027Z,-0.31
2018-12-27T05:06:32.544Z,-0.37
2018-12-27T05:09:08.274Z,-0.27
2018-12-27T05:11:41.140Z,-0.22
2018-12-27T05:14:14.481Z,-0.24
2018-12-27T05:16:47.265Z,-0.30
2018-12-27T05:19:20.279Z,-0.41
2018-12-27T05:21:54.862Z,-0.48
2018-12-27T05:24:29.325Z,-0.53
2018-12-27T05:27:02.346Z,-0.62
2018-12-27T05:29:36.627Z,-0.62
2018-12-27T05:32:09.835Z,-0.65
2018-12-27T05:34:42.651Z,-0.67
2018-12-27T05:37:16.112Z,-0.67
2018-12-27T05:39:53.850Z,-0.62
2018-12-27T05:42:26.755Z,-0.59
2018-12-27T05:45:00.284Z,-0.59
2018-12-27T05:47:35.196Z,-0.54
2018-12-27T05:50:08.236Z,-0.58
2018-12-27T05:52:42.425Z,-0.72
2018-12-27T05:55:15.461Z,-0.84
2018-12-27T05:57:48.371Z,-0.88
2018-12-27T06:00:21.814Z,-0.94
2018-12-27T06:02:54.763Z,-0.96
2018-12-27T06:05:27.919Z,-0.98
2018-12-27T06:08:02.408Z,-0.97
2018-12-27T06:10:35.407Z,-1.02
2018-12-27T06:13:08.327Z,-1.03
2018-12-27T06:15:41.743Z,-1.07
2018-12-27T06:18:14.637Z,-1.07
2018-12-27T06:20:47.471Z,-1.07
2018-12-27T06:23:20.840Z,-1.11
2018-12-27T06:25:54.074Z,-1.18
2018-12-27T06:28:27.184Z,-1.24
2018-12-27T06:31:00.609Z,-1.27
2018-12-27T06:33:34.626Z,-1.33
2018-12-27T06:36:08.632Z,-1.37
2018-12-27T06:38:42.308Z,-1.44
2018-12-27T06:41:15.524Z,-1.51
2018-12-27T06:43:48.406Z,-1.64
2018-12-27T06:46:21.857Z,-1.69
2018-12-27T06:48:54.795Z,-1.60
2018-12-27T06:51:27.593Z,-1.53
2018-12-27T06:54:02.617Z,-1.49
2018-12-27T06:56:35.617Z,-1.52
2018-12-27T06:59:08.532Z,-1.48
2018-12-27T07:01:43.835Z,-1.56
2018-12-27T07:04:17.087Z,-1.64
2018-12-27T07:06:50.165Z,-1.70
2018-12-27T07:09:25.511Z,-1.70
2018-12-27T07:11:59.471Z,-1.60
2018-12-27T07:14:32.414Z,-1.67
2018-12-27T07:17:05.882Z,-1.80
2018-12-27T07:19:39.819Z,-1.87
2018-12-27T07:22:12.936Z,-1.92
2018-12-27T07:24:46.432Z,-1.96
2018-12-27T07:27:19.401Z,-1.95
2018-12-27T07:29:52.442Z,-1.87
2018-12-27T07:32:25.806Z,-1.71
2018-12-27T07:34:58.857Z,-1.58
2018-12-27T07:37:32.230Z,-1.55
2018-12-27T07:40:07.018Z,-1.52
2018-12-27T07:42:40.032Z,-1.47
2018-12-27T07:45:14.589Z,-1.42
2018-12-27T07:47:48.103Z,-1.39
2018-12-27T07:50:21.061Z,-1.32
2018-12-27T07:52:54.014Z,-1.23
2018-12-27T07:55:29.149Z,-1.11
2018-12-27T07:58:02.395Z,-1.10
2018-12-27T08:00:36.527Z,-1.06
2018-12-27T08:03:10.876Z,-0.95
2018-12-27T08:05:44.769Z,-0.80
2018-12-27T08:08:17.672Z,-0.81
2018-12-27T08:10:50.909Z,-0.79
2018-12-27T08:13:24.786Z,-0.63
2018-12-27T08:16:00.491Z,-0.27
2018-12-27T08:18:33.745Z,-0.23
2018-12-27T08:21:06.685Z,-0.19
2018-12-27T08:23:40.583Z,-0.20
2018-12-27T08:26:15.417Z,-0.28
2018-12-27T08:28:48.952Z,-0.27
2018-12-27T08:31:21.935Z,-0.15
2018-12-27T08:33:57.101Z,-0.03
2018-12-27T08:36:30.173Z,0.08
2018-12-27T08:39:04.689Z,0.20
2018-12-27T08:41:39.128Z,0.27
2018-12-27T08:44:12.005Z,0.37
2018-12-27T08:46:44.995Z,0.45
2018-12-27T08:49:18.394Z,0.52
2018-12-27T08:51:52.977Z,0.64
2018-12-27T08:54:28.916Z,0.74
2018-12-27T08:57:02.256Z,0.85
2018-12-27T08:59:36.273Z,0.95
2018-12-27T09:02:11.800Z,0.98
2018-12-27T09:04:45.465Z,1.01
2018-12-27T09:07:19.312Z,1.07
2018-12-27T09:09:52.860Z,1.10
2018-12-27T09:12:26.652Z,1.12
2018-12-27T09:14:59.554Z,1.11
2018-12-27T09:17:37.123Z,1.08
2018-12-27T09:20:10.671Z,1.08
2018-12-27T09:22:44.039Z,1.18
2018-12-27T09:25:18.982Z,1.31
2018-12-27T09:27:52.004Z,1.44
2018-12-27T09:30:25.459Z,1.66
2018-12-27T09:32:58.362Z,1.89
2018-12-27T09:35:32.105Z,2.16
2018-12-27T09:38:07.691Z,2.55
2018-12-27T09:40:41.268Z,2.89
2018-12-27T09:43:16.256Z,3.02
2018-12-27T09:45:49.744Z,3.08
2018-12-27T09:48:24.208Z,3.21
2018-12-27T09:50:59.171Z,3.30
2018-12-27T09:53:33.125Z,3.41
2018-12-27T09:56:06.247Z,3.54
2018-12-27T09:58:39.892Z,3.70
2018-12-27T10:01:13.009Z,3.96
2018-12-27T10:03:45.904Z,4.20
2018-12-27T10:06:19.363Z,4.46
2018-12-27T10:08:56.436Z,4.71
2018-12-27T10:11:29.447Z,4.93
2018-12-27T10:14:08.088Z,5.19
2018-12-27T10:16:42.239Z,5.46
2018-12-27T10:19:16.072Z,5.70
2018-12-27T10:21:50.401Z,5.90
2018-12-27T10:24:24.277Z,6.08
2018-12-27T10:26:57.469Z,6.22
2018-12-27T10:29:35.796Z,6.40
2018-12-27T10:32:08.842Z,6.62
2018-12-27T10:34:42.285Z,6.77
2018-12-27T10:37:20.279Z,6.95
2018-12-27T10:39:53.296Z,7.26
2018-12-27T10:42:26.449Z,7.56
2018-12-27T10:45:04.205Z,7.71
2018-12-27T10:47:37.969Z,7.82
2018-12-27T10:50:13.393Z,7.80
2018-12-27T10:52:49.096Z,7.70
2018-12-27T10:55:24.865Z,7.70
2018-12-27T10:58:00.240Z,7.82
2018-12-27T11:00:37.363Z,7.88
2018-12-27T11:03:11.337Z,7.89
2018-12-27T11:05:48.704Z,7.82
2018-12-27T11:08:26.626Z,7.79
2018-12-27T11:11:01.489Z,7.77
2018-12-27T11:13:34.670Z,7.75
2018-12-27T11:16:09.362Z,7.74
2018-12-27T11:18:43.196Z,7.76
2018-12-27T11:21:17.441Z,7.83
2018-12-27T11:23:50.921Z,8.01
2018-12-27T11:26:23.890Z,8.15
2018-12-27T11:28:59.484Z,8.36
2018-12-27T11:31:35.485Z,8.40
2018-12-27T11:34:08.423Z,8.49
2018-12-27T11:36:42.167Z,8.55
2018-12-27T11:39:15.951Z,8.63
2018-12-27T11:41:49.266Z,8.73
2018-12-27T11:44:22.107Z,8.90
2018-12-27T11:46:55.364Z,9.10
2018-12-27T11:49:28.789Z,9.19
2018-12-27T11:52:02.806Z,9.18
2018-12-27T11:54:36.770Z,9.11
2018-12-27T11:57:11.689Z,9.06
2018-12-27T11:59:45.206Z,8.92
2018-12-27T12:02:19.209Z,8.73
2018-12-27T12:04:54.837Z,8.65
2018-12-27T12:07:29.638Z,8.66
2018-12-27T12:10:04.341Z,8.67
2018-12-27T12:12:39.820Z,8.67
2018-12-27T12:15:14.745Z,8.70
2018-12-27T12:17:48.385Z,8.74
2018-12-27T12:20:21.400Z,8.67
2018-12-27T12:22:55.052Z,8.65
2018-12-27T12:25:28.034Z,8.68
2018-12-27T12:28:01.686Z,8.73
2018-12-27T12:30:36.782Z,8.78
2018-12-27T12:33:10.239Z,8.82
2018-12-27T12:35:46.180Z,8.78
2018-12-27T12:38:20.175Z,8.82
2018-12-27T12:40:53.826Z,8.98
2018-12-27T12:43:33.429Z,9.15
2018-12-27T12:46:08.040Z,9.35
2018-12-27T12:48:41.133Z,9.49
2018-12-27T12:51:16.568Z,9.50
2018-12-27T12:53:51.746Z,9.40
2018-12-27T12:56:26.741Z,9.25
2018-12-27T12:59:02.417Z,9.09
2018-12-27T13:01:35.409Z,8.91
2018-12-27T13:04:09.865Z,8.80
2018-12-27T13:06:46.391Z,8.64
2018-12-27T13:09:20.740Z,8.51
2018-12-27T13:11:55.395Z,8.37
2018-12-27T13:14:29.228Z,8.18
2018-12-27T13:17:06.304Z,8.01
2018-12-27T13:19:39.257Z,7.91
2018-12-27T13:22:14.853Z,7.86
2018-12-27T13:24:48.722Z,7.81
2018-12-27T13:27:22.596Z,7.75
2018-12-27T13:29:58.923Z,7.75
2018-12-27T13:32:31.888Z,7.70
2018-12-27T13:35:06.697Z,7.68
2018-12-27T13:37:41.023Z,7.64
2018-12-27T13:40:14.108Z,7.66
2018-12-27T13:42:49.903Z,7.67
2018-12-27T13:45:22.884Z,7.69
2018-12-27T13:47:57.071Z,7.64
2018-12-27T13:50:30.539Z,7.63
2018-12-27T13:53:06.793Z,7.61
2018-12-27T13:55:39.771Z,7.59
2018-12-27T13:58:13.877Z,7.58
2018-12-27T14:00:48.184Z,7.56
2018-12-27T14:03:23.043Z,7.56
2018-12-27T14:06:06.799Z,7.54
2018-12-27T14:08:39.818Z,7.52
2018-12-27T14:11:15.608Z,7.50
2018-12-27T14:13:50.615Z,7.46
2018-12-27T14:16:25.901Z,7.37
2018-12-27T14:18:58.953Z,7.33
2018-12-27T14:21:32.494Z,7.32
2018-12-27T14:24:06.439Z,7.26
2018-12-27T14:26:42.929Z,7.21
2018-12-27T14:29:16.785Z,7.18
2018-12-27T14:31:49.901Z,7.19
2018-12-27T14:34:23.194Z,7.20
2018-12-27T14:37:00.762Z,7.17
2018-12-27T14:39:35.472Z,7.11
2018-12-27T14:42:12.213Z,7.06
2018-12-27T14:44:46.464Z,7.03
2018-12-27T14:47:20.538Z,7.00
2018-12-27T14:49:55.133Z,6.92
2018-12-27T14:52:32.412Z,6.82
2018-12-27T14:55:05.583Z,6.72
2018-12-27T14:57:39.201Z,6.63
2018-12-27T15:00:15.288Z,6.56
2018-12-27T15:02:52.173Z,6.48
2018-12-27T15:05:25.024Z,6.41
2018-12-27T15:07:59.675Z,6.33
2018-12-27T15:10:32.565Z,6.24
2018-12-27T15:13:06.245Z,6.15
2018-12-27T15:15:40.208Z,6.06
2018-12-27T15:18:13.320Z,5.98
2018-12-27T15:20:46.631Z,5.88
2018-12-27T15:23:22.389Z,5.80
2018-12-27T15:25:56.909Z,5.71
2018-12-27T15:28:32.174Z,5.60
2018-12-27T15:31:06.079Z,5.48
2018-12-27T15:33:39.193Z,5.34
2018-12-27T15:36:12.771Z,5.22
2018-12-27T15:38:48.235Z,5.20
2018-12-27T15:41:23.386Z,5.17
2018-12-27T15:43:59.904Z,5.08
2018-12-27T15:46:35.759Z,4.92
2018-12-27T15:49:18.470Z,4.83
2018-12-27T15:51:52.471Z,4.80
2018-12-27T15:54:29.674Z,4.74
2018-12-27T15:57:02.827Z,4.60
2018-12-27T15:59:41.593Z,4.40
2018-12-27T16:02:18.431Z,4.23
2018-12-27T16:04:52.304Z,4.07
2018-12-27T16:07:31.941Z,3.88
2018-12-27T16:10:06.352Z,3.75
2018-12-27T16:12:43.982Z,3.75
2018-12-27T16:15:18.227Z,3.74
2018-12-27T16:17:51.343Z,3.74
2018-12-27T16:20:25.451Z,3.70
2018-12-27T16:22:59.118Z,3.67
2018-12-27T16:25:34.092Z,3.66
2018-12-27T16:28:13.102Z,3.71
2018-12-27T16:30:46.940Z,3.68
2018-12-27T16:33:20.994Z,3.65
2018-12-27T16:36:03.572Z,3.62
2018-12-27T16:38:37.933Z,3.57
2018-12-27T16:41:12.745Z,3.51
2018-12-27T16:43:46.157Z,3.42
2018-12-27T16:46:19.156Z,3.32
2018-12-27T16:48:52.069Z,3.21
2018-12-27T16:51:25.743Z,3.07
2018-12-27T16:53:58.818Z,3.00
2018-12-27T16:56:33.584Z,2.90
2018-12-27T16:59:09.822Z,2.80
2018-12-27T17:01:42.907Z,2.71
2018-12-27T17:04:16.088Z,2.66
2018-12-27T17:06:50.190Z,2.72
2018-12-27T17:09:24.948Z,2.74
2018-12-27T17:12:02.628Z,2.79
2018-12-27T17:14:36.687Z,2.83
2018-12-27T17:17:12.395Z,2.93
2018-12-27T17:19:45.452Z,2.96
2018-12-27T17:22:23.976Z,2.94
2018-12-27T17:24:58.877Z,2.94
2018-12-27T17:27:33.831Z,2.90
2018-12-27T17:30:12.572Z,2.90
2018-12-27T17:32:47.165Z,2.92
2018-12-27T17:35:20.649Z,2.94
2018-12-27T17:37:55.019Z,2.90
2018-12-27T17:40:28.025Z,2.90
2018-12-27T17:43:04.600Z,2.87
2018-12-27T17:45:39.522Z,2.79
2018-12-27T17:48:13.607Z,2.74
2018-12-27T17:50:46.601Z,2.66
2018-12-27T17:53:21.924Z,2.56
2018-12-27T17:55:55.685Z,2.48
2018-12-27T17:58:28.553Z,2.41
2018-12-27T18:01:02.066Z,2.39
2018-12-27T18:03:35.438Z,2.36
2018-12-27T18:06:09.474Z,2.35
2018-12-27T18:08:43.861Z,2.29
2018-12-27T18:11:17.670Z,2.21
2018-12-27T18:13:50.596Z,2.19
2018-12-27T18:16:25.092Z,2.22
2018-12-27T18:18:59.387Z,2.19
2018-12-27T18:21:32.563Z,2.11
2018-12-27T18:24:06.456Z,2.01
2018-12-27T18:26:39.440Z,1.98
2018-12-27T18:29:13.158Z,1.94
2018-12-27T18:31:46.531Z,1.89
2018-12-27T18:34:21.500Z,1.82
2018-12-27T18:36:55.748Z,1.81
2018-12-27T18:39:30.892Z,1.77
2018-12-27T18:42:03.825Z,1.75
2018-12-27T18:44:38.130Z,1.65
2018-12-27T18:47:11.631Z,1.56
2018-12-27T18:49:45.556Z,1.54
2018-12-27T18:52:19.441Z,1.52
2018-12-27T18:54:53.113Z,1.53
2018-12-27T18:57:27.592Z,1.53
2018-12-27T19:00:07.860Z,1.51
2018-12-27T19:02:43.676Z,1.52
2018-12-27T19:05:18.504Z,1.56
2018-12-27T19:07:53.309Z,1.59
2018-12-27T19:10:28.601Z,1.59
2018-12-27T19:13:11.615Z,1.62
2018-12-27T19:15:57.312Z,1.68
2018-12-27T19:18:37.102Z,1.71
2018-12-27T19:21:44.506Z,1.73
2018-12-27T19:24:20.949Z,1.78
2018-12-27T19:26:57.676Z,1.87
2018-12-27T19:29:32.522Z,1.96
2018-12-27T19:32:07.900Z,2.00
2018-12-27T19:34:48.466Z,2.29
2018-12-27T19:37:22.690Z,2.33
2018-12-27T19:39:56.379Z,2.23
2018-12-27T19:42:31.097Z,2.19
2018-12-27T19:45:15.594Z,2.09
2018-12-27T19:47:48.982Z,1.95
2018-12-27T19:50:22.784Z,1.80
2018-12-27T19:52:58.093Z,1.69
2018-12-27T19:55:42.568Z,1.73
2018-12-27T19:58:18.862Z,1.69
2018-12-27T20:00:56.135Z,1.65
2018-12-27T20:03:32.057Z,1.65
2018-12-27T20:06:07.011Z,1.63
2018-12-27T20:08:41.143Z,1.53
2018-12-27T20:11:15.898Z,1.51
2018-12-27T20:13:50.556Z,1.45
2018-12-27T20:16:26.314Z,1.40
2018-12-27T20:19:00.178Z,1.42
2018-12-27T20:21:37.366Z,1.44
2018-12-27T20:24:13.956Z,1.45
2018-12-27T20:26:54.318Z,1.41
2018-12-27T20:29:29.083Z,1.36
2018-12-27T20:32:09.702Z,1.37
2018-12-27T20:34:47.417Z,1.36
2018-12-27T20:37:26.160Z,1.34
2018-12-27T20:40:00.586Z,1.38
2018-12-27T20:42:37.315Z,1.37
2018-12-27T20:45:13.408Z,1.34
2018-12-27T20:47:48.223Z,1.35
2018-12-27T20:50:22.586Z,1.41
2018-12-27T20:52:57.745Z,1.52
2018-12-27T20:55:33.185Z,1.55
2018-12-27T20:58:06.151Z,1.55
2018-12-27T21:00:40.040Z,1.56
2018-12-27T21:03:17.508Z,1.61
2018-12-27T21:05:57.921Z,1.60
2018-12-27T21:08:32.058Z,1.56
2018-12-27T21:11:06.421Z,1.66
2018-12-27T21:13:40.848Z,1.61
2018-12-27T21:16:14.709Z,1.54
2018-12-27T21:18:52.378Z,1.51
2018-12-27T21:21:26.721Z,1.42
2018-12-27T21:24:02.063Z,1.46
2018-12-27T21:26:37.510Z,1.49
2018-12-27T21:29:12.336Z,1.44
2018-12-27T21:31:45.480Z,1.40
2018-12-27T21:34:19.394Z,1.44
2018-12-27T21:36:53.448Z,1.52
2018-12-27T21:39:28.945Z,1.62
2018-12-27T21:42:03.933Z,1.77
2018-12-27T21:44:38.833Z,1.89
2018-12-27T21:47:13.548Z,1.99
2018-12-27T21:49:46.825Z,2.00
2018-12-27T21:52:19.973Z,1.93
2018-12-27T21:54:55.718Z,1.89
2018-12-27T21:57:28.768Z,1.81
2018-12-27T22:00:06.894Z,1.76
2018-12-27T22:02:40.618Z,1.73
2018-12-27T22:05:13.722Z,1.70
2018-12-27T22:07:47.709Z,1.64
2018-12-27T22:10:20.701Z,1.61
2018-12-27T22:12:55.277Z,1.58
2018-12-27T22:15:28.968Z,1.59
2018-12-27T22:18:02.768Z,1.59
2018-12-27T22:20:37.083Z,1.64
2018-12-27T22:23:12.678Z,1.61
2018-12-27T22:25:45.755Z,1.57
2018-12-27T22:28:20.641Z,1.53
2018-12-27T22:30:55.665Z,1.43
2018-12-27T22:33:30.581Z,1.34
2018-12-27T22:36:04.381Z,1.23
2018-12-27T22:38:38.132Z,1.16
2018-12-27T22:41:11.327Z,1.10
2018-12-27T22:43:47.681Z,1.08
2018-12-27T22:46:22.177Z,1.05
2018-12-27T22:48:55.370Z,1.03
2018-12-27T22:51:29.111Z,1.00
2018-12-27T22:54:02.415Z,1.02
2018-12-27T22:56:35.513Z,1.02
2018-12-27T22:59:13.272Z,1.06
2018-12-27T23:01:46.195Z,1.07
2018-12-27T23:04:19.448Z,1.09
2018-12-27T23:06:53.106Z,1.13
2018-12-27T23:09:26.234Z,1.12
2018-12-27T23:11:59.143Z,1.08
2018-12-27T23:14:36.120Z,1.01
2018-12-27T23:17:09.007Z,0.97
2018-12-27T23:19:42.951Z,0.92
2018-12-27T23:22:17.270Z,0.86
2018-12-27T23:24:50.301Z,0.75
2018-12-27T23:27:24.299Z,0.68
2018-12-27T23:29:58.491Z,0.67
2018-12-27T23:32:33.022Z,0.74
2018-12-27T23:35:07.868Z,0.74
2018-12-27T23:37:41.377Z,0.75
2018-12-27T23:40:16.514Z,0.77
2018-12-27T23:42:50.637Z,0.68
2018-12-27T23:45:24.127Z,0.54
2018-12-27T23:47:57.130Z,0.49
2018-12-27T23:50:30.102Z,0.43
2018-12-27T23:53:03.542Z,0.41
2018-12-27T23:55:37.424Z,0.44
2018-12-27T23:58:10.582Z,0.55
